Time;durP1;ratioP1;P1;durP2;ratioP2;P2;SDS_P1;SDS_P2;PMS_P1;PMS_P2;Temp;Humidity;BMP_temperature;BMP_pressure;BME280_temperature;BME280_humidity;BME280_pressure;Samples;Min_cycle;Max_cycle;Signal;HPM_P1;HPM_P2
2021/11/13 00:02:21;;;;;;;15.03;9.57;;;9.10;99.90;;;;;;5016485;28;20426;-44
2021/11/13 00:04:47;;;;;;;12.50;10.07;;;9.20;99.90;;;;;;5024827;28;20645;-44
2021/11/13 00:07:12;;;;;;;12.23;9.10;;;9.00;99.90;;;;;;5014390;28;20187;-45
2021/11/13 00:09:38;;;;;;;12.10;10.23;;;9.20;99.90;;;;;;5009207;28;20195;-44
2021/11/13 00:12:05;;;;;;;10.73;9.17;;;9.00;99.90;;;;;;5009518;28;20381;-45
2021/11/13 00:14:32;;;;;;;12.30;10.00;;;9.20;99.90;;;;;;5006746;28;20933;-45
2021/11/13 00:16:59;;;;;;;14.17;9.77;;;9.00;99.90;;;;;;5016969;28;20430;-44
2021/11/13 00:19:25;;;;;;;12.00;9.40;;;9.10;99.90;;;;;;5007308;28;20457;-44
2021/11/13 00:21:50;;;;;;;12.90;10.63;;;9.00;99.90;;;;;;5009128;28;20434;-46
2021/11/13 00:24:17;;;;;;;11.63;9.60;;;9.10;99.90;;;;;;5019648;28;20437;-45
2021/11/13 00:26:43;;;;;;;13.10;9.90;;;9.00;99.90;;;;;;5025095;28;20273;-46
2021/11/13 00:29:08;;;;;;;14.13;10.40;;;9.20;99.90;;;;;;5013457;28;20521;-45
2021/11/13 00:31:34;;;;;;;11.90;9.50;;;9.10;99.90;;;;;;5012209;28;20453;-44
2021/11/13 00:34:01;;;;;;;11.37;9.77;;;8.90;99.90;;;;;;5006382;28;20237;-45
2021/11/13 00:36:27;;;;;;;12.97;10.60;;;9.00;99.90;;;;;;5006046;28;20418;-46
2021/11/13 00:38:52;;;;;;;12.73;9.50;;;9.10;99.90;;;;;;5014869;28;20460;-47
2021/11/13 00:41:19;;;;;;;12.73;9.63;;;8.80;99.90;;;;;;5018947;28;20194;-48
2021/11/13 00:43:46;;;;;;;12.77;10.43;;;8.90;99.90;;;;;;5006335;28;20430;-44
2021/11/13 00:46:12;;;;;;;13.33;10.40;;;8.80;99.90;;;;;;5008447;28;20422;-45
2021/11/13 00:48:38;;;;;;;12.03;9.37;;;9.00;99.90;;;;;;5020110;28;20850;-44
2021/11/13 00:51:04;;;;;;;12.77;10.10;;;8.70;99.90;;;;;;5007159;28;20458;-44
2021/11/13 00:53:30;;;;;;;10.63;9.53;;;9.00;99.90;;;;;;5014282;28;20438;-44
2021/11/13 00:55:55;;;;;;;13.90;9.47;;;8.80;99.90;;;;;;5018504;28;20593;-44
2021/11/13 00:58:21;;;;;;;11.90;9.07;;;8.90;99.90;;;;;;5006578;28;20434;-45
2021/11/13 01:00:48;;;;;;;14.60;10.73;;;9.00;99.90;;;;;;5007270;28;20617;-44
2021/11/13 01:03:14;;;;;;;13.70;10.27;;;8.90;99.90;;;;;;5006365;28;20210;-45
2021/11/13 01:05:39;;;;;;;13.37;9.80;;;8.80;99.90;;;;;;5006921;28;20928;-46
2021/11/13 01:08:05;;;;;;;11.77;9.60;;;8.70;99.90;;;;;;5015959;28;20217;-44
2021/11/13 01:10:31;;;;;;;15.23;11.17;;;8.70;99.90;;;;;;5016452;28;20210;-44
2021/11/13 01:12:57;;;;;;;12.87;10.03;;;8.80;99.90;;;;;;5015687;28;20258;-44
2021/11/13 01:15:22;;;;;;;12.57;10.07;;;8.80;99.90;;;;;;5010881;28;20191;-44
2021/11/13 01:17:48;;;;;;;12.67;10.40;;;8.90;99.90;;;;;;5016047;28;20187;-46
2021/11/13 01:20:16;;;;;;;14.40;9.50;;;8.80;99.90;;;;;;5011013;28;20298;-43
2021/11/13 01:22:43;;;;;;;11.80;9.87;;;8.70;99.90;;;;;;5013529;28;20445;-45
2021/11/13 01:25:10;;;;;;;13.30;8.73;;;8.80;99.90;;;;;;5023124;28;20424;-44
2021/11/13 01:27:35;;;;;;;11.40;8.50;;;9.00;99.90;;;;;;5026532;28;20461;-44
2021/11/13 01:30:03;;;;;;;13.73;10.50;;;8.70;99.90;;;;;;5010703;28;20465;-44
2021/11/13 01:32:29;;;;;;;15.77;9.73;;;8.70;99.90;;;;;;5011838;28;20254;-44
2021/11/13 01:34:54;;;;;;;14.43;10.30;;;8.80;99.90;;;;;;5009761;28;20948;-44
2021/11/13 01:37:20;;;;;;;11.60;9.53;;;8.70;99.90;;;;;;5010265;28;20195;-44
2021/11/13 01:39:46;;;;;;;13.23;9.93;;;9.00;99.90;;;;;;5018426;28;20186;-44
2021/11/13 01:42:12;;;;;;;10.77;9.67;;;8.80;99.90;;;;;;5022869;28;20681;-44
2021/11/13 01:44:38;;;;;;;12.40;8.77;;;8.60;99.90;;;;;;5009898;28;20436;-45
2021/11/13 01:47:04;;;;;;;12.50;10.00;;;8.70;99.90;;;;;;5020246;28;20194;-47
2021/11/13 01:49:30;;;;;;;13.30;8.93;;;8.70;99.90;;;;;;5021584;28;20651;-45
2021/11/13 01:51:56;;;;;;;13.67;9.90;;;8.80;99.90;;;;;;5010847;28;20900;-45
2021/11/13 01:54:22;;;;;;;11.93;9.20;;;8.80;99.90;;;;;;5020504;28;20433;-44
2021/11/13 01:56:51;;;;;;;14.63;10.07;;;8.80;99.90;;;;;;5022181;28;20190;-45
2021/11/13 01:59:18;;;;;;;11.23;9.03;;;8.70;99.90;;;;;;5009902;28;20429;-44
2021/11/13 02:01:45;;;;;;;12.57;9.87;;;8.90;99.90;;;;;;5016534;28;20567;-44
2021/11/13 02:04:11;;;;;;;12.37;9.17;;;8.80;99.90;;;;;;5009207;28;20426;-43
2021/11/13 02:06:36;;;;;;;12.17;8.53;;;9.00;99.90;;;;;;5009751;28;20913;-44
2021/11/13 02:09:06;;;;;;;12.20;9.40;;;8.80;99.90;;;;;;5016327;28;20195;-44
2021/11/13 02:11:32;;;;;;;13.10;9.27;;;8.80;99.90;;;;;;5020570;28;20304;-44
2021/11/13 02:13:59;;;;;;;11.10;8.73;;;8.70;99.90;;;;;;5020521;28;20422;-44
2021/11/13 02:16:26;;;;;;;11.17;9.27;;;8.90;99.90;;;;;;5012523;28;20518;-44
2021/11/13 02:18:51;;;;;;;11.43;8.70;;;9.10;99.90;;;;;;5008702;28;20901;-45
2021/11/13 02:21:17;;;;;;;10.80;9.50;;;9.00;99.90;;;;;;5009290;28;20432;-45
2021/11/13 02:23:44;;;;;;;13.13;9.90;;;9.30;99.90;;;;;;5016221;28;20507;-45
2021/11/13 02:26:10;;;;;;;12.93;10.40;;;9.10;99.90;;;;;;5016785;28;20488;-44
2021/11/13 02:28:37;;;;;;;11.70;8.73;;;8.80;99.90;;;;;;5015699;28;20472;-44
2021/11/13 02:31:05;;;;;;;13.27;9.77;;;9.00;99.90;;;;;;5009990;28;20476;-44
2021/11/13 02:33:31;;;;;;;13.13;9.13;;;8.80;99.90;;;;;;5018789;28;20452;-44
2021/11/13 02:35:59;;;;;;;15.37;9.57;;;8.90;99.90;;;;;;5009353;28;20422;-45
2021/11/13 02:38:32;;;;;;;11.53;8.50;;;8.70;99.90;;;;;;5015224;28;20503;-44
2021/11/13 02:41:00;;;;;;;11.47;9.40;;;8.90;99.90;;;;;;5013678;28;20432;-44
2021/11/13 02:43:28;;;;;;;11.73;9.50;;;8.90;99.90;;;;;;5014702;28;20810;-44
2021/11/13 02:45:56;;;;;;;12.50;9.93;;;9.00;99.90;;;;;;5008541;28;20929;-44
2021/11/13 02:48:23;;;;;;;16.13;10.77;;;8.90;99.90;;;;;;5026370;28;20425;-45
2021/11/13 02:50:50;;;;;;;12.30;10.07;;;8.90;99.90;;;;;;5010408;28;20452;-44
2021/11/13 02:53:18;;;;;;;15.87;10.13;;;9.00;99.90;;;;;;5018343;28;20544;-44
2021/11/13 02:55:44;;;;;;;15.43;10.03;;;9.00;99.90;;;;;;5016305;28;20472;-46
2021/11/13 02:58:10;;;;;;;11.80;9.67;;;9.00;99.90;;;;;;5026381;28;20465;-45
2021/11/13 03:00:37;;;;;;;20.00;10.00;;;8.90;99.90;;;;;;5009818;28;20880;-45
2021/11/13 03:03:03;;;;;;;15.63;10.57;;;9.00;99.90;;;;;;5011292;28;20873;-44
2021/11/13 03:05:35;;;;;;;12.93;9.67;;;9.00;99.90;;;;;;5008400;28;20512;-48
2021/11/13 03:08:04;;;;;;;15.03;9.93;;;8.80;99.90;;;;;;5010007;28;20210;-44
2021/11/13 03:10:34;;;;;;;12.57;10.13;;;8.80;99.90;;;;;;5019314;28;20421;-44
2021/11/13 03:13:01;;;;;;;11.70;9.47;;;8.70;99.90;;;;;;5011626;28;20420;-44
2021/11/13 03:15:28;;;;;;;17.57;10.50;;;8.80;99.90;;;;;;5008333;28;20410;-44
2021/11/13 03:17:56;;;;;;;14.43;10.47;;;8.90;99.90;;;;;;5021200;28;20421;-46
2021/11/13 03:20:26;;;;;;;13.77;10.93;;;8.60;99.90;;;;;;5008181;28;20418;-44
2021/11/13 03:22:53;;;;;;;12.90;9.83;;;8.80;99.90;;;;;;5007671;28;20418;-45
2021/11/13 03:25:22;;;;;;;13.83;9.60;;;8.80;99.90;;;;;;5013768;28;20417;-44
2021/11/13 03:27:55;;;;;;;13.87;10.97;;;8.50;99.90;;;;;;5016878;28;20857;-44
2021/11/13 03:30:22;;;;;;;14.40;10.70;;;8.60;99.90;;;;;;5008295;28;20410;-44
2021/11/13 03:32:50;;;;;;;16.40;11.40;;;8.60;99.90;;;;;;5016428;28;20468;-45
2021/11/13 03:35:17;;;;;;;12.97;9.97;;;8.40;99.90;;;;;;5007975;28;20432;-44
2021/11/13 03:37:44;;;;;;;14.40;11.07;;;8.60;99.90;;;;;;5007982;28;20731;-44
2021/11/13 03:40:11;;;;;;;16.30;11.30;;;8.50;99.90;;;;;;5024029;28;20447;-44
2021/11/13 03:42:39;;;;;;;16.93;10.90;;;8.30;99.90;;;;;;5019910;28;20467;-46
2021/11/13 03:45:06;;;;;;;17.33;11.93;;;8.40;99.90;;;;;;5017135;28;20434;-44
2021/11/13 03:47:32;;;;;;;17.13;11.80;;;8.50;99.90;;;;;;5017314;28;20532;-44
2021/11/13 03:49:57;;;;;;;15.03;11.53;;;8.30;99.90;;;;;;5017277;28;20520;-46
2021/11/13 03:52:23;;;;;;;19.87;11.80;;;8.20;99.90;;;;;;5012131;28;20532;-45
2021/11/13 03:54:49;;;;;;;16.50;12.10;;;8.20;99.90;;;;;;5017494;28;20191;-45
2021/11/13 03:57:14;;;;;;;18.77;11.83;;;8.00;99.90;;;;;;5020857;28;20234;-45
2021/11/13 03:59:40;;;;;;;17.73;12.40;;;8.10;99.90;;;;;;5015174;28;20199;-44
2021/11/13 04:02:10;;;;;;;16.93;11.83;;;8.00;99.90;;;;;;5010954;28;20633;-44
2021/11/13 04:04:36;;;;;;;18.30;12.37;;;7.80;99.90;;;;;;5015884;28;20705;-44
2021/11/13 04:07:02;;;;;;;14.90;11.00;;;7.90;99.90;;;;;;5007456;28;20426;-44
2021/11/13 04:09:28;;;;;;;18.53;11.73;;;7.90;99.90;;;;;;5008733;28;20453;-44
2021/11/13 04:11:54;;;;;;;16.13;12.50;;;7.90;99.90;;;;;;5017810;28;20217;-45
2021/11/13 04:14:19;;;;;;;19.63;12.87;;;8.00;99.90;;;;;;5012270;28;20183;-45
2021/11/13 04:16:45;;;;;;;17.77;12.30;;;8.00;99.90;;;;;;5007825;28;20178;-49
2021/11/13 04:19:12;;;;;;;16.07;12.13;;;7.90;99.90;;;;;;5015066;28;20266;-45
2021/11/13 04:21:38;;;;;;;16.27;11.87;;;8.00;99.90;;;;;;5005894;28;20390;-45
2021/11/13 04:24:05;;;;;;;18.20;11.40;;;8.00;99.90;;;;;;5006034;28;20496;-45
2021/11/13 04:26:31;;;;;;;17.03;12.23;;;8.00;99.90;;;;;;5015761;28;20711;-44
2021/11/13 04:28:56;;;;;;;15.27;11.40;;;8.00;99.90;;;;;;5017891;28;20425;-44
2021/11/13 04:31:22;;;;;;;17.13;12.57;;;7.90;99.90;;;;;;5009491;28;20689;-44
2021/11/13 04:33:48;;;;;;;16.00;11.53;;;8.00;99.90;;;;;;5011104;28;20183;-45
2021/11/13 04:36:21;;;;;;;14.90;11.23;;;8.20;99.90;;;;;;5007080;28;20191;-44
2021/11/13 04:38:49;;;;;;;15.20;11.80;;;8.00;99.90;;;;;;5007200;28;20278;-44
2021/11/13 04:41:15;;;;;;;18.07;12.77;;;8.20;99.90;;;;;;5011064;28;20944;-45
2021/11/13 04:43:40;;;;;;;15.80;12.07;;;7.90;99.90;;;;;;5011297;28;20421;-44
2021/11/13 04:46:06;;;;;;;14.27;10.30;;;8.00;99.90;;;;;;5011344;28;20191;-45
2021/11/13 04:48:32;;;;;;;15.43;11.77;;;8.00;99.90;;;;;;5012206;28;20570;-45
2021/11/13 04:50:57;;;;;;;15.70;10.90;;;8.00;99.90;;;;;;5010703;28;20610;-44
2021/11/13 04:53:25;;;;;;;16.77;10.67;;;8.10;99.90;;;;;;5023243;28;20194;-44
2021/11/13 04:55:50;;;;;;;13.87;10.93;;;8.20;99.90;;;;;;5021946;28;20688;-44
2021/11/13 04:58:16;;;;;;;16.20;10.87;;;8.30;99.90;;;;;;5015566;28;20429;-45
2021/11/13 05:00:42;;;;;;;15.93;11.30;;;8.30;99.90;;;;;;5011105;28;20199;-44
2021/11/13 05:03:07;;;;;;;16.00;11.37;;;8.20;99.90;;;;;;5018593;28;20210;-45
2021/11/13 05:05:33;;;;;;;16.07;11.63;;;8.40;99.90;;;;;;5011253;28;20222;-46
2021/11/13 05:07:59;;;;;;;13.27;10.40;;;8.40;99.90;;;;;;5011232;28;20289;-44
2021/11/13 05:10:25;;;;;;;13.00;10.40;;;8.10;99.90;;;;;;5023367;28;20189;-44
2021/11/13 05:12:50;;;;;;;14.00;10.27;;;8.10;99.90;;;;;;5024172;28;20555;-46
2021/11/13 05:15:17;;;;;;;15.30;10.70;;;8.20;99.90;;;;;;5024330;28;20189;-47
2021/11/13 05:17:42;;;;;;;15.40;10.10;;;8.30;99.90;;;;;;5014641;28;20190;-45
2021/11/13 05:20:11;;;;;;;13.27;10.47;;;8.30;99.90;;;;;;5011229;28;20992;-47
2021/11/13 05:22:39;;;;;;;12.20;10.03;;;8.20;99.90;;;;;;5010605;28;20434;-44
2021/11/13 05:25:07;;;;;;;15.30;10.60;;;8.30;99.90;;;;;;5014931;28;20428;-44
2021/11/13 05:27:33;;;;;;;11.50;9.30;;;8.40;99.90;;;;;;5026370;28;20421;-44
2021/11/13 05:29:58;;;;;;;10.93;9.33;;;8.50;99.90;;;;;;5014452;28;20432;-45
2021/11/13 05:32:24;;;;;;;12.13;10.43;;;8.40;99.90;;;;;;5010498;28;20466;-45
2021/11/13 05:34:50;;;;;;;12.57;9.10;;;8.20;99.90;;;;;;5019077;28;20206;-44
2021/11/13 05:37:16;;;;;;;11.50;9.23;;;8.20;99.90;;;;;;5021645;28;20448;-49
2021/11/13 05:39:42;;;;;;;11.40;9.67;;;8.30;99.90;;;;;;5021979;28;20249;-46
2021/11/13 05:42:07;;;;;;;12.53;9.67;;;8.10;99.90;;;;;;5019405;28;20194;-44
2021/11/13 05:44:33;;;;;;;11.50;9.10;;;8.20;99.90;;;;;;5015843;28;20198;-47
2021/11/13 05:46:59;;;;;;;13.03;9.47;;;8.20;99.90;;;;;;5010021;28;20191;-45
2021/11/13 05:49:25;;;;;;;11.30;9.00;;;8.40;99.90;;;;;;5013693;28;20434;-44
2021/11/13 05:51:51;;;;;;;10.43;8.73;;;8.20;99.90;;;;;;5009810;28;20587;-45
2021/11/13 05:54:17;;;;;;;11.30;8.07;;;8.30;99.90;;;;;;5028372;28;20508;-44
2021/11/13 05:56:43;;;;;;;11.00;7.83;;;8.20;99.90;;;;;;5023072;28;20570;-45
2021/11/13 05:59:09;;;;;;;14.40;9.40;;;8.30;99.90;;;;;;5022661;28;20417;-44
2021/11/13 06:01:35;;;;;;;11.27;8.27;;;8.20;99.90;;;;;;5016243;28;20418;-46
2021/11/13 06:04:00;;;;;;;10.13;7.73;;;8.10;99.90;;;;;;5017228;28;20718;-45
2021/11/13 06:06:26;;;;;;;9.33;7.53;;;8.20;99.90;;;;;;5049090;28;20174;-45
2021/11/13 06:08:52;;;;;;;10.97;7.63;;;8.20;99.90;;;;;;5009868;28;20662;-46
2021/11/13 06:11:18;;;;;;;8.23;7.33;;;8.00;99.90;;;;;;5020684;28;20296;-45
2021/11/13 06:13:43;;;;;;;10.20;7.83;;;8.30;99.90;;;;;;5022733;28;20422;-45
2021/11/13 06:16:09;;;;;;;8.43;6.63;;;8.40;99.90;;;;;;5016037;28;20943;-45
2021/11/13 06:18:36;;;;;;;8.50;7.60;;;8.30;99.90;;;;;;5016208;28;20623;-45
2021/11/13 06:21:03;;;;;;;10.87;7.57;;;8.20;99.90;;;;;;5015958;28;20215;-45
2021/11/13 06:23:29;;;;;;;9.70;6.80;;;8.20;99.90;;;;;;5006987;28;20476;-47
2021/11/13 06:25:54;;;;;;;7.20;6.27;;;8.20;99.90;;;;;;5012636;28;20939;-46
2021/11/13 06:28:20;;;;;;;8.70;6.13;;;8.30;99.90;;;;;;5023612;28;20244;-44
2021/11/13 06:30:46;;;;;;;9.07;7.30;;;8.40;99.90;;;;;;5011988;28;20190;-45
2021/11/13 06:33:11;;;;;;;6.77;5.90;;;8.40;99.90;;;;;;5011108;28;20188;-46
2021/11/13 06:35:37;;;;;;;7.90;6.87;;;8.20;99.90;;;;;;5015141;28;20190;-46
2021/11/13 06:38:03;;;;;;;7.90;6.57;;;8.40;99.90;;;;;;5008332;28;20175;-47
2021/11/13 06:40:29;;;;;;;9.30;7.00;;;8.30;99.90;;;;;;5016732;28;20440;-45
2021/11/13 06:42:55;;;;;;;9.43;7.90;;;8.40;99.90;;;;;;5012123;28;20429;-45
2021/11/13 06:45:20;;;;;;;8.10;7.07;;;8.30;99.90;;;;;;5027995;28;20277;-46
2021/11/13 06:47:46;;;;;;;8.70;7.20;;;8.30;99.90;;;;;;5014728;28;20641;-46
2021/11/13 06:50:13;;;;;;;9.67;7.50;;;8.10;99.90;;;;;;5011152;28;20545;-46
2021/11/13 06:52:39;;;;;;;11.03;8.47;;;8.40;99.90;;;;;;5015360;28;20206;-45
2021/11/13 06:55:05;;;;;;;8.93;7.73;;;8.30;99.90;;;;;;5027640;28;20512;-46
2021/11/13 06:57:31;;;;;;;9.47;7.60;;;8.40;99.90;;;;;;5011419;28;20203;-49
2021/11/13 06:59:57;;;;;;;9.40;8.10;;;8.30;99.90;;;;;;5017780;28;20506;-45
2021/11/13 07:02:22;;;;;;;10.07;8.03;;;8.20;99.90;;;;;;5007869;28;20261;-45
2021/11/13 07:04:48;;;;;;;8.67;7.20;;;8.20;99.90;;;;;;5007894;28;20191;-45
2021/11/13 07:07:14;;;;;;;9.60;7.97;;;8.20;99.90;;;;;;5008594;28;20202;-48
2021/11/13 07:09:41;;;;;;;9.27;7.37;;;8.10;99.90;;;;;;5009341;28;20249;-45
2021/11/13 07:12:07;;;;;;;10.80;8.70;;;8.20;99.90;;;;;;5022589;28;20468;-46
2021/11/13 07:14:33;;;;;;;9.97;8.20;;;8.20;99.90;;;;;;5035584;28;20626;-46
2021/11/13 07:16:59;;;;;;;9.03;8.00;;;8.20;99.90;;;;;;5034925;28;20485;-47
2021/11/13 07:19:24;;;;;;;9.60;8.60;;;8.20;99.90;;;;;;5028655;28;20409;-46
2021/11/13 07:21:50;;;;;;;10.97;8.37;;;8.10;99.90;;;;;;5008961;28;20245;-45
2021/11/13 07:24:16;;;;;;;11.70;8.60;;;8.30;99.90;;;;;;5015751;28;20258;-46
2021/11/13 07:26:42;;;;;;;10.70;8.50;;;8.20;99.90;;;;;;5022174;28;20194;-47
2021/11/13 07:29:12;;;;;;;9.57;7.80;;;8.30;99.90;;;;;;5025427;28;20190;-45
2021/11/13 07:31:37;;;;;;;10.40;8.90;;;8.30;99.90;;;;;;5013891;28;20500;-45
2021/11/13 07:34:03;;;;;;;10.70;9.30;;;8.20;99.90;;;;;;5023960;28;20441;-45
2021/11/13 07:36:30;;;;;;;12.73;9.40;;;8.40;99.90;;;;;;5008306;28;20187;-47
2021/11/13 07:38:56;;;;;;;10.03;8.50;;;8.40;99.90;;;;;;5008122;28;20195;-46
2021/11/13 07:41:23;;;;;;;12.93;9.57;;;8.30;99.90;;;;;;5014433;28;20460;-45
2021/11/13 07:43:50;;;;;;;12.33;9.53;;;8.40;99.90;;;;;;5021007;28;20344;-46
2021/11/13 07:46:15;;;;;;;10.50;9.07;;;8.30;99.90;;;;;;5021505;28;20477;-45
2021/11/13 07:48:41;;;;;;;12.10;9.53;;;8.20;99.90;;;;;;5032253;28;20425;-47
2021/11/13 07:51:08;;;;;;;10.97;8.97;;;8.20;99.90;;;;;;5038021;28;20337;-44
2021/11/13 07:53:35;;;;;;;12.20;8.90;;;8.40;99.90;;;;;;5036472;28;20428;-48
2021/11/13 07:56:01;;;;;;;11.07;8.60;;;8.40;99.90;;;;;;5029167;28;20436;-45
2021/11/13 07:58:27;;;;;;;11.63;8.93;;;8.30;99.90;;;;;;5033297;28;20921;-45
2021/11/13 08:00:52;;;;;;;9.77;7.43;;;8.60;99.90;;;;;;5030673;28;20499;-47
2021/11/13 08:03:19;;;;;;;10.27;8.90;;;8.40;99.90;;;;;;5041501;28;20510;-46
2021/11/13 08:05:45;;;;;;;11.00;9.27;;;8.20;99.90;;;;;;5028304;28;20351;-44
2021/11/13 08:08:11;;;;;;;10.57;8.90;;;8.40;99.90;;;;;;5044814;28;20823;-45
2021/11/13 08:10:41;;;;;;;11.13;9.00;;;8.60;99.90;;;;;;5011094;28;20601;-46
2021/11/13 08:13:19;;;;;;;11.67;8.97;;;8.30;99.90;;;;;;5015819;28;20214;-44
2021/11/13 08:15:45;;;;;;;12.03;9.30;;;8.30;99.90;;;;;;5018402;28;20513;-44
2021/11/13 08:18:11;;;;;;;11.10;8.70;;;8.50;99.90;;;;;;5020734;28;20414;-45
2021/11/13 08:20:38;;;;;;;10.00;8.57;;;8.30;99.90;;;;;;5014133;28;20437;-44
2021/11/13 08:23:04;;;;;;;11.80;9.33;;;8.50;99.90;;;;;;5005394;28;20183;-46
2021/11/13 08:25:32;;;;;;;11.83;9.47;;;8.40;99.90;;;;;;5008471;28;20461;-45
2021/11/13 08:27:58;;;;;;;11.97;9.37;;;8.40;99.90;;;;;;5016331;28;20414;-46
2021/11/13 08:30:28;;;;;;;12.27;10.57;;;8.50;99.90;;;;;;5015331;28;20418;-45
2021/11/13 08:32:54;;;;;;;12.17;9.10;;;8.60;99.90;;;;;;5006939;28;20469;-45
2021/11/13 08:35:19;;;;;;;12.77;9.40;;;8.60;99.90;;;;;;5009375;28;21200;-45
2021/11/13 08:37:46;;;;;;;13.53;11.00;;;8.60;99.90;;;;;;5007350;28;20795;-45
2021/11/13 08:40:12;;;;;;;14.70;11.23;;;8.40;99.90;;;;;;5024573;28;20730;-45
2021/11/13 08:42:38;;;;;;;12.60;10.07;;;8.70;99.90;;;;;;5023579;28;20441;-44
2021/11/13 08:45:07;;;;;;;11.50;10.30;;;8.60;99.90;;;;;;5019411;28;20452;-44
2021/11/13 08:47:35;;;;;;;13.60;9.87;;;8.80;99.90;;;;;;5012930;28;20421;-45
2021/11/13 08:50:03;;;;;;;13.27;10.90;;;8.80;99.90;;;;;;5024985;28;20423;-45
2021/11/13 08:52:28;;;;;;;12.40;10.53;;;8.60;99.90;;;;;;5008220;28;20466;-46
2021/11/13 08:54:54;;;;;;;15.53;11.03;;;8.70;99.90;;;;;;5006513;28;20421;-45
2021/11/13 08:57:20;;;;;;;11.23;8.73;;;8.90;99.90;;;;;;5008516;28;20624;-46
2021/11/13 08:59:46;;;;;;;11.80;9.20;;;8.90;99.90;;;;;;5017221;28;20422;-46
2021/11/13 09:02:19;;;;;;;12.77;9.40;;;9.10;99.90;;;;;;5007325;28;20187;-47
2021/11/13 09:04:47;;;;;;;12.63;10.20;;;9.00;99.90;;;;;;5013448;28;20233;-46
2021/11/13 09:07:13;;;;;;;11.00;8.70;;;9.00;99.90;;;;;;5007037;28;20449;-45
2021/11/13 09:09:40;;;;;;;12.00;9.70;;;9.20;99.90;;;;;;5007545;28;20467;-46
2021/11/13 09:12:11;;;;;;;9.23;8.23;;;8.90;99.90;;;;;;5014528;28;20474;-45
2021/11/13 09:14:37;;;;;;;10.70;8.90;;;9.10;99.90;;;;;;5016268;28;20421;-45
2021/11/13 09:17:04;;;;;;;10.27;8.27;;;9.10;99.90;;;;;;5017860;28;20422;-45
2021/11/13 09:19:30;;;;;;;10.67;8.03;;;9.00;99.90;;;;;;5009663;28;20447;-45
2021/11/13 09:21:55;;;;;;;10.33;8.17;;;9.10;99.90;;;;;;5006798;28;20422;-45
2021/11/13 09:24:22;;;;;;;10.00;8.47;;;9.10;99.90;;;;;;5004958;28;20504;-44
2021/11/13 09:26:48;;;;;;;8.50;7.37;;;9.10;99.90;;;;;;5010316;28;20603;-45
2021/11/13 09:29:14;;;;;;;9.03;6.63;;;9.10;99.90;;;;;;5015848;28;20908;-45
2021/11/13 09:31:43;;;;;;;7.87;7.17;;;9.20;99.90;;;;;;5013950;28;20502;-45
2021/11/13 09:34:14;;;;;;;8.90;7.57;;;9.40;99.90;;;;;;5009671;28;20426;-46
2021/11/13 09:36:40;;;;;;;8.10;7.00;;;9.30;99.90;;;;;;5018968;28;20429;-46
2021/11/13 09:39:06;;;;;;;8.23;6.80;;;9.30;99.90;;;;;;5030299;28;20432;-44
2021/11/13 09:41:34;;;;;;;10.33;6.50;;;9.40;99.90;;;;;;5029058;28;20437;-45
2021/11/13 09:44:00;;;;;;;8.93;7.73;;;9.50;99.90;;;;;;5018016;28;20851;-46
2021/11/13 09:46:26;;;;;;;9.90;8.17;;;9.30;99.90;;;;;;5013795;28;20513;-45
2021/11/13 09:48:53;;;;;;;9.90;6.90;;;9.40;99.90;;;;;;5022221;28;20735;-45
2021/11/13 09:51:19;;;;;;;11.20;7.47;;;9.30;99.90;;;;;;5017261;28;20565;-45
2021/11/13 09:53:46;;;;;;;9.00;7.07;;;9.30;99.90;;;;;;5023988;28;20966;-46
2021/11/13 09:56:12;;;;;;;10.17;8.60;;;9.30;99.90;;;;;;5029623;28;20425;-45
2021/11/13 09:58:38;;;;;;;7.83;7.00;;;9.30;99.90;;;;;;5023400;28;20492;-46
2021/11/13 10:01:04;;;;;;;10.90;7.90;;;9.30;99.90;;;;;;5028355;28;20425;-45
2021/11/13 10:03:31;;;;;;;10.63;7.40;;;9.20;99.90;;;;;;5013462;28;20422;-45
2021/11/13 10:06:00;;;;;;;8.53;7.10;;;9.30;99.90;;;;;;5012733;28;20179;-50
2021/11/13 10:08:27;;;;;;;8.50;7.70;;;9.40;99.90;;;;;;5009858;28;20418;-48
2021/11/13 10:10:59;;;;;;;9.47;7.90;;;9.40;99.90;;;;;;5010029;28;20460;-47
2021/11/13 10:13:50;;;;;;;11.80;7.77;;;9.30;99.90;;;;;;5018386;28;20428;-47
2021/11/13 10:16:32;;;;;;;8.03;6.80;;;9.30;99.90;;;;;;5017462;28;20451;-46
2021/11/13 10:19:05;;;;;;;9.17;7.93;;;9.30;99.90;;;;;;5009779;28;20444;-44
2021/11/13 10:21:32;;;;;;;9.03;7.13;;;9.10;99.90;;;;;;5022016;28;20418;-46
2021/11/13 10:24:09;;;;;;;10.20;8.30;;;9.40;99.90;;;;;;5007540;28;20418;-45
2021/11/13 10:26:44;;;;;;;8.20;7.40;;;9.20;99.90;;;;;;5012496;28;20437;-46
2021/11/13 10:29:14;;;;;;;7.60;6.63;;;9.20;99.90;;;;;;5016684;28;20460;-46
2021/11/13 10:31:42;;;;;;;9.97;7.40;;;9.20;99.90;;;;;;5016877;28;20461;-45
2021/11/13 10:34:16;;;;;;;9.50;6.83;;;9.30;99.90;;;;;;5008406;28;20426;-44
2021/11/13 10:36:48;;;;;;;8.63;7.23;;;9.20;99.90;;;;;;5017319;28;20433;-45
2021/11/13 10:39:18;;;;;;;9.93;7.83;;;9.20;99.90;;;;;;5009348;28;20938;-45
2021/11/13 10:41:55;;;;;;;9.10;7.33;;;9.30;99.90;;;;;;5009755;28;20437;-46
2021/11/13 10:44:34;;;;;;;8.53;7.63;;;9.20;99.90;;;;;;5019249;28;20766;-46
2021/11/13 10:47:18;;;;;;;8.60;7.63;;;9.40;99.90;;;;;;5021015;28;20423;-46
2021/11/13 10:49:47;;;;;;;9.47;8.47;;;9.40;99.90;;;;;;5008927;28;20956;-45
2021/11/13 10:52:13;;;;;;;9.50;8.60;;;9.60;99.90;;;;;;5015859;28;20460;-45
2021/11/13 10:54:43;;;;;;;9.90;8.20;;;9.60;99.90;;;;;;5028087;28;20421;-45
2021/11/13 10:57:09;;;;;;;8.53;7.73;;;9.50;99.90;;;;;;5025946;28;20858;-45
2021/11/13 10:59:41;;;;;;;8.40;7.57;;;9.60;99.90;;;;;;5027047;28;20413;-45
2021/11/13 11:02:16;;;;;;;8.63;7.70;;;9.70;99.90;;;;;;5017977;28;20945;-45
2021/11/13 11:04:44;;;;;;;8.50;7.70;;;9.70;99.90;;;;;;5007111;28;20428;-46
2021/11/13 11:07:24;;;;;;;8.93;8.03;;;9.90;99.90;;;;;;5021105;28;20921;-45
2021/11/13 11:10:10;;;;;;;8.77;7.93;;;9.80;99.90;;;;;;5008801;28;20777;-45
2021/11/13 11:12:37;;;;;;;8.80;8.00;;;9.80;99.90;;;;;;5008875;28;21338;-45
2021/11/13 11:15:12;;;;;;;8.57;7.70;;;9.90;99.90;;;;;;5013487;28;20480;-46
2021/11/13 11:17:39;;;;;;;8.90;8.00;;;10.00;99.90;;;;;;5012783;28;20420;-48
2021/11/13 11:20:08;;;;;;;8.30;7.50;;;9.90;99.90;;;;;;5009317;28;20419;-45
2021/11/13 11:22:35;;;;;;;8.60;7.80;;;9.80;99.90;;;;;;5014669;28;20422;-46
2021/11/13 11:25:07;;;;;;;9.43;8.43;;;9.70;99.90;;;;;;5006560;28;20501;-45
2021/11/13 11:27:34;;;;;;;9.73;8.83;;;9.90;99.90;;;;;;5015849;28;20457;-49
2021/11/13 11:30:02;;;;;;;8.57;7.77;;;10.00;99.90;;;;;;5013808;28;20430;-49
2021/11/13 11:32:37;;;;;;;9.37;8.47;;;9.80;99.90;;;;;;5025387;28;20555;-46
2021/11/13 11:35:08;;;;;;;9.20;8.23;;;9.80;99.90;;;;;;5007743;28;20428;-46
2021/11/13 11:37:38;;;;;;;8.60;7.60;;;9.90;99.90;;;;;;5023545;28;20405;-46
2021/11/13 11:40:07;;;;;;;9.73;7.70;;;10.10;99.90;;;;;;5028162;28;20413;-47
2021/11/13 11:42:33;;;;;;;9.13;8.23;;;10.00;99.90;;;;;;5024036;28;20492;-48
2021/11/13 11:45:00;;;;;;;8.33;7.53;;;9.90;99.90;;;;;;5019865;28;20450;-46
2021/11/13 11:47:31;;;;;;;9.07;7.60;;;9.80;99.90;;;;;;5015821;28;20710;-47
2021/11/13 11:49:59;;;;;;;11.07;8.57;;;9.90;99.90;;;;;;5016359;28;20422;-46
2021/11/13 11:52:27;;;;;;;8.80;7.70;;;9.90;99.90;;;;;;5025596;28;20530;-48
2021/11/13 11:54:54;;;;;;;8.90;8.00;;;9.90;99.90;;;;;;5026832;28;20942;-46
2021/11/13 11:57:29;;;;;;;9.30;8.40;;;9.90;99.90;;;;;;5026772;28;20445;-48
2021/11/13 12:00:03;;;;;;;10.67;7.53;;;10.10;99.90;;;;;;5016028;28;20942;-49
2021/11/13 12:02:40;;;;;;;8.53;7.73;;;9.90;99.90;;;;;;5008695;28;20445;-46
2021/11/13 12:05:14;;;;;;;8.40;7.50;;;10.00;99.90;;;;;;5018144;28;20878;-45
2021/11/13 12:07:41;;;;;;;8.70;7.60;;;9.90;99.90;;;;;;5024793;28;20440;-45
2021/11/13 12:10:07;;;;;;;8.90;7.97;;;9.70;99.90;;;;;;5015170;28;20960;-45
2021/11/13 12:12:34;;;;;;;9.43;8.53;;;9.90;99.90;;;;;;5020210;28;20511;-47
2021/11/13 12:15:18;;;;;;;9.50;8.60;;;9.90;99.90;;;;;;5014262;28;20782;-46
2021/11/13 12:17:46;;;;;;;8.30;7.50;;;9.90;99.90;;;;;;5022934;28;20417;-46
2021/11/13 12:20:15;;;;;;;8.20;7.47;;;10.00;99.90;;;;;;5023896;28;20480;-46
2021/11/13 12:22:46;;;;;;;9.00;8.10;;;9.90;99.90;;;;;;5025237;28;20425;-46
2021/11/13 12:25:13;;;;;;;9.10;8.20;;;10.10;99.90;;;;;;5005464;28;20454;-47
2021/11/13 12:27:40;;;;;;;9.83;8.83;;;9.90;99.90;;;;;;5021805;28;20464;-48
2021/11/13 12:30:06;;;;;;;9.40;8.10;;;9.90;99.90;;;;;;5023392;28;21014;-46
2021/11/13 12:32:37;;;;;;;9.50;8.10;;;9.80;99.90;;;;;;5019738;28;20464;-46
2021/11/13 12:35:04;;;;;;;9.63;8.63;;;9.90;99.90;;;;;;5023198;28;20491;-45
2021/11/13 12:37:29;;;;;;;11.90;9.30;;;9.80;99.90;;;;;;5018160;28;20804;-46
2021/11/13 12:39:57;;;;;;;9.47;8.47;;;10.00;99.90;;;;;;5023517;28;20425;-45
2021/11/13 12:42:27;;;;;;;10.30;8.83;;;9.80;99.90;;;;;;5023406;28;20194;-46
2021/11/13 12:44:59;;;;;;;12.10;9.30;;;9.90;99.90;;;;;;5019042;28;20417;-46
2021/11/13 12:47:34;;;;;;;10.63;8.50;;;9.70;99.90;;;;;;5022877;28;20414;-45
2021/11/13 12:50:21;;;;;;;9.17;8.27;;;10.00;99.90;;;;;;5023122;28;20425;-45